sensor_id;sensor_type;location;lat;lon;timestamp;P1;durP1;ratioP1;P2;durP2;ratioP2
11303;SDS011;5707;49.588;12.148;2024-02-26T00:00:02;4.28;;;3.88;;
11303;SDS011;5707;49.588;12.148;2024-02-26T00:02:30;4.93;;;4.47;;
11303;SDS011;5707;49.588;12.148;2024-02-26T00:04:57;4.68;;;4.28;;
11303;SDS011;5707;49.588;12.148;2024-02-26T00:07:22;5.15;;;4.65;;
11303;SDS011;5707;49.588;12.148;2024-02-26T00:09:48;4.85;;;4.45;;
11303;SDS011;5707;49.588;12.148;2024-02-26T00:12:13;5.45;;;3.63;;
11303;SDS011;5707;49.588;12.148;2024-02-26T00:14:39;5.00;;;4.03;;
11303;SDS011;5707;49.588;12.148;2024-02-26T00:17:06;3.50;;;3.20;;
11303;SDS011;5707;49.588;12.148;2024-02-26T00:19:31;4.50;;;4.10;;
11303;SDS011;5707;49.588;12.148;2024-02-26T00:21:57;4.53;;;4.13;;
11303;SDS011;5707;49.588;12.148;2024-02-26T00:24:22;3.63;;;2.90;;
11303;SDS011;5707;49.588;12.148;2024-02-26T00:26:48;4.00;;;3.60;;
11303;SDS011;5707;49.588;12.148;2024-02-26T00:29:18;3.42;;;3.13;;
11303;SDS011;5707;49.588;12.148;2024-02-26T00:31:44;3.53;;;3.22;;
11303;SDS011;5707;49.588;12.148;2024-02-26T00:34:09;3.78;;;3.47;;
11303;SDS011;5707;49.588;12.148;2024-02-26T00:36:35;5.63;;;2.90;;
11303;SDS011;5707;49.588;12.148;2024-02-26T00:39:00;3.40;;;3.10;;
11303;SDS011;5707;49.588;12.148;2024-02-26T00:41:26;2.78;;;2.13;;
11303;SDS011;5707;49.588;12.148;2024-02-26T00:43:52;2.50;;;2.30;;
11303;SDS011;5707;49.588;12.148;2024-02-26T00:46:17;2.03;;;1.83;;
11303;SDS011;5707;49.588;12.148;2024-02-26T00:48:43;2.40;;;2.20;;
11303;SDS011;5707;49.588;12.148;2024-02-26T00:51:08;5.40;;;2.88;;
11303;SDS011;5707;49.588;12.148;2024-02-26T00:53:34;2.92;;;2.70;;
11303;SDS011;5707;49.588;12.148;2024-02-26T00:55:59;2.90;;;2.70;;
11303;SDS011;5707;49.588;12.148;2024-02-26T00:58:25;2.75;;;2.55;;
11303;SDS011;5707;49.588;12.148;2024-02-26T01:00:51;2.72;;;2.53;;
11303;SDS011;5707;49.588;12.148;2024-02-26T01:03:17;3.17;;;2.90;;
11303;SDS011;5707;49.588;12.148;2024-02-26T01:05:43;3.58;;;3.28;;
11303;SDS011;5707;49.588;12.148;2024-02-26T01:08:08;2.38;;;2.17;;
11303;SDS011;5707;49.588;12.148;2024-02-26T01:10:34;2.45;;;2.25;;
11303;SDS011;5707;49.588;12.148;2024-02-26T01:13:00;3.00;;;2.70;;
11303;SDS011;5707;49.588;12.148;2024-02-26T01:15:26;2.80;;;2.60;;
11303;SDS011;5707;49.588;12.148;2024-02-26T01:17:51;3.38;;;2.80;;
11303;SDS011;5707;49.588;12.148;2024-02-26T01:20:17;3.25;;;2.97;;
11303;SDS011;5707;49.588;12.148;2024-02-26T01:22:43;3.97;;;3.00;;
11303;SDS011;5707;49.588;12.148;2024-02-26T01:25:09;3.83;;;3.42;;
11303;SDS011;5707;49.588;12.148;2024-02-26T01:27:35;3.47;;;3.17;;
11303;SDS011;5707;49.588;12.148;2024-02-26T01:30:05;3.80;;;3.50;;
11303;SDS011;5707;49.588;12.148;2024-02-26T01:32:31;4.00;;;3.22;;
11303;SDS011;5707;49.588;12.148;2024-02-26T01:34:57;3.40;;;3.10;;
11303;SDS011;5707;49.588;12.148;2024-02-26T01:37:22;3.45;;;3.15;;
11303;SDS011;5707;49.588;12.148;2024-02-26T01:39:48;3.78;;;3.35;;
11303;SDS011;5707;49.588;12.148;2024-02-26T01:42:14;3.72;;;3.42;;
11303;SDS011;5707;49.588;12.148;2024-02-26T01:44:39;4.03;;;3.50;;
11303;SDS011;5707;49.588;12.148;2024-02-26T01:47:08;3.90;;;3.35;;
11303;SDS011;5707;49.588;12.148;2024-02-26T01:49:36;5.05;;;3.35;;
11303;SDS011;5707;49.588;12.148;2024-02-26T01:52:03;3.40;;;3.10;;
11303;SDS011;5707;49.588;12.148;2024-02-26T01:54:31;3.83;;;3.53;;
11303;SDS011;5707;49.588;12.148;2024-02-26T01:56:58;3.40;;;3.10;;
11303;SDS011;5707;49.588;12.148;2024-02-26T01:59:24;3.20;;;2.90;;
11303;SDS011;5707;49.588;12.148;2024-02-26T02:01:52;3.47;;;3.17;;
11303;SDS011;5707;49.588;12.148;2024-02-26T02:04:21;3.65;;;3.35;;
11303;SDS011;5707;49.588;12.148;2024-02-26T02:06:48;3.65;;;2.58;;
11303;SDS011;5707;49.588;12.148;2024-02-26T02:09:13;3.75;;;3.20;;
11303;SDS011;5707;49.588;12.148;2024-02-26T02:11:39;3.53;;;3.10;;
11303;SDS011;5707;49.588;12.148;2024-02-26T02:14:05;3.42;;;3.10;;
11303;SDS011;5707;49.588;12.148;2024-02-26T02:16:31;3.30;;;3.00;;
11303;SDS011;5707;49.588;12.148;2024-02-26T02:18:57;3.50;;;3.20;;
11303;SDS011;5707;49.588;12.148;2024-02-26T02:21:23;3.53;;;3.15;;
11303;SDS011;5707;49.588;12.148;2024-02-26T02:23:49;3.08;;;2.88;;
11303;SDS011;5707;49.588;12.148;2024-02-26T02:26:14;3.60;;;3.30;;
11303;SDS011;5707;49.588;12.148;2024-02-26T02:28:40;3.05;;;2.80;;
11303;SDS011;5707;49.588;12.148;2024-02-26T02:31:07;3.25;;;2.95;;
11303;SDS011;5707;49.588;12.148;2024-02-26T02:33:33;4.43;;;4.00;;
11303;SDS011;5707;49.588;12.148;2024-02-26T02:35:59;3.50;;;3.20;;
11303;SDS011;5707;49.588;12.148;2024-02-26T02:38:25;4.30;;;3.90;;
11303;SDS011;5707;49.588;12.148;2024-02-26T02:40:54;4.72;;;4.32;;
11303;SDS011;5707;49.588;12.148;2024-02-26T02:43:20;4.97;;;4.57;;
11303;SDS011;5707;49.588;12.148;2024-02-26T02:45:45;5.50;;;5.05;;
11303;SDS011;5707;49.588;12.148;2024-02-26T02:48:11;4.68;;;4.38;;
11303;SDS011;5707;49.588;12.148;2024-02-26T02:50:37;5.38;;;4.93;;
11303;SDS011;5707;49.588;12.148;2024-02-26T02:53:02;5.82;;;5.32;;
11303;SDS011;5707;49.588;12.148;2024-02-26T02:55:28;6.60;;;6.00;;
11303;SDS011;5707;49.588;12.148;2024-02-26T02:57:54;5.93;;;5.45;;
11303;SDS011;5707;49.588;12.148;2024-02-26T03:00:19;6.72;;;6.18;;
11303;SDS011;5707;49.588;12.148;2024-02-26T03:02:47;6.22;;;5.72;;
11303;SDS011;5707;49.588;12.148;2024-02-26T03:05:13;3.65;;;3.35;;
11303;SDS011;5707;49.588;12.148;2024-02-26T03:07:39;5.03;;;4.57;;
11303;SDS011;5707;49.588;12.148;2024-02-26T03:10:04;5.88;;;5.47;;
11303;SDS011;5707;49.588;12.148;2024-02-26T03:12:30;6.65;;;6.15;;
11303;SDS011;5707;49.588;12.148;2024-02-26T03:14:56;4.35;;;4.05;;
11303;SDS011;5707;49.588;12.148;2024-02-26T03:17:22;4.70;;;4.30;;
11303;SDS011;5707;49.588;12.148;2024-02-26T03:19:49;3.55;;;3.25;;
11303;SDS011;5707;49.588;12.148;2024-02-26T03:22:18;4.35;;;4.00;;
11303;SDS011;5707;49.588;12.148;2024-02-26T03:24:44;3.70;;;3.40;;
11303;SDS011;5707;49.588;12.148;2024-02-26T03:27:09;4.65;;;2.80;;
11303;SDS011;5707;49.588;12.148;2024-02-26T03:29:35;3.83;;;3.53;;
11303;SDS011;5707;49.588;12.148;2024-02-26T03:32:02;3.45;;;3.15;;
11303;SDS011;5707;49.588;12.148;2024-02-26T03:34:28;3.40;;;3.20;;
11303;SDS011;5707;49.588;12.148;2024-02-26T03:36:53;3.60;;;3.30;;
11303;SDS011;5707;49.588;12.148;2024-02-26T03:39:19;3.72;;;3.42;;
11303;SDS011;5707;49.588;12.148;2024-02-26T03:41:44;3.35;;;3.13;;
11303;SDS011;5707;49.588;12.148;2024-02-26T03:44:10;3.55;;;3.25;;
11303;SDS011;5707;49.588;12.148;2024-02-26T03:46:35;4.75;;;4.40;;
11303;SDS011;5707;49.588;12.148;2024-02-26T03:49:01;5.50;;;5.00;;
11303;SDS011;5707;49.588;12.148;2024-02-26T03:51:26;7.15;;;6.55;;
11303;SDS011;5707;49.588;12.148;2024-02-26T03:53:56;8.20;;;7.45;;
11303;SDS011;5707;49.588;12.148;2024-02-26T03:56:22;8.32;;;7.63;;
11303;SDS011;5707;49.588;12.148;2024-02-26T03:58:48;8.98;;;8.27;;
11303;SDS011;5707;49.588;12.148;2024-02-26T04:01:14;8.15;;;7.50;;
11303;SDS011;5707;49.588;12.148;2024-02-26T04:03:39;9.52;;;7.50;;
11303;SDS011;5707;49.588;12.148;2024-02-26T04:06:08;8.82;;;8.02;;
11303;SDS011;5707;49.588;12.148;2024-02-26T04:08:35;8.75;;;8.05;;
11303;SDS011;5707;49.588;12.148;2024-02-26T04:11:01;9.05;;;8.25;;
11303;SDS011;5707;49.588;12.148;2024-02-26T04:13:27;9.38;;;8.57;;
11303;SDS011;5707;49.588;12.148;2024-02-26T04:15:53;8.82;;;8.20;;
11303;SDS011;5707;49.588;12.148;2024-02-26T04:18:18;8.52;;;7.82;;
11303;SDS011;5707;49.588;12.148;2024-02-26T04:20:44;10.27;;;8.55;;
11303;SDS011;5707;49.588;12.148;2024-02-26T04:23:09;9.38;;;8.48;;
11303;SDS011;5707;49.588;12.148;2024-02-26T04:25:35;8.43;;;7.72;;
11303;SDS011;5707;49.588;12.148;2024-02-26T04:28:00;9.32;;;8.52;;
11303;SDS011;5707;49.588;12.148;2024-02-26T04:30:26;8.65;;;7.95;;
11303;SDS011;5707;49.588;12.148;2024-02-26T04:32:52;8.55;;;7.85;;
11303;SDS011;5707;49.588;12.148;2024-02-26T04:35:17;9.57;;;8.88;;
11303;SDS011;5707;49.588;12.148;2024-02-26T04:37:43;8.82;;;8.13;;
11303;SDS011;5707;49.588;12.148;2024-02-26T04:40:08;8.40;;;7.80;;
11303;SDS011;5707;49.588;12.148;2024-02-26T04:42:34;8.00;;;7.40;;
11303;SDS011;5707;49.588;12.148;2024-02-26T04:45:00;8.95;;;8.23;;
11303;SDS011;5707;49.588;12.148;2024-02-26T04:47:25;8.68;;;7.88;;
11303;SDS011;5707;49.588;12.148;2024-02-26T04:49:51;8.88;;;8.07;;
11303;SDS011;5707;49.588;12.148;2024-02-26T04:52:17;9.25;;;8.32;;
11303;SDS011;5707;49.588;12.148;2024-02-26T04:54:43;8.60;;;7.90;;
11303;SDS011;5707;49.588;12.148;2024-02-26T04:57:09;9.50;;;8.70;;
11303;SDS011;5707;49.588;12.148;2024-02-26T04:59:34;7.78;;;7.18;;
11303;SDS011;5707;49.588;12.148;2024-02-26T05:02:00;9.45;;;8.70;;
11303;SDS011;5707;49.588;12.148;2024-02-26T05:04:25;8.57;;;7.90;;
11303;SDS011;5707;49.588;12.148;2024-02-26T05:06:51;13.52;;;8.80;;
11303;SDS011;5707;49.588;12.148;2024-02-26T05:09:16;9.07;;;8.38;;
11303;SDS011;5707;49.588;12.148;2024-02-26T05:11:42;9.23;;;8.40;;
11303;SDS011;5707;49.588;12.148;2024-02-26T05:14:07;8.65;;;7.90;;
11303;SDS011;5707;49.588;12.148;2024-02-26T05:16:33;8.50;;;7.80;;
11303;SDS011;5707;49.588;12.148;2024-02-26T05:18:58;8.82;;;8.13;;
11303;SDS011;5707;49.588;12.148;2024-02-26T05:21:24;8.68;;;7.78;;
11303;SDS011;5707;49.588;12.148;2024-02-26T05:23:50;8.48;;;7.78;;
11303;SDS011;5707;49.588;12.148;2024-02-26T05:26:21;8.45;;;7.75;;
11303;SDS011;5707;49.588;12.148;2024-02-26T05:28:48;9.88;;;9.07;;
11303;SDS011;5707;49.588;12.148;2024-02-26T05:31:14;9.27;;;8.57;;
11303;SDS011;5707;49.588;12.148;2024-02-26T05:33:39;8.88;;;8.18;;
11303;SDS011;5707;49.588;12.148;2024-02-26T05:36:05;9.30;;;8.50;;
11303;SDS011;5707;49.588;12.148;2024-02-26T05:38:31;8.75;;;8.10;;
11303;SDS011;5707;49.588;12.148;2024-02-26T05:40:57;8.60;;;7.93;;
11303;SDS011;5707;49.588;12.148;2024-02-26T05:43:24;9.40;;;8.50;;
11303;SDS011;5707;49.588;12.148;2024-02-26T05:45:53;9.55;;;8.75;;
11303;SDS011;5707;49.588;12.148;2024-02-26T05:48:19;9.00;;;8.30;;
11303;SDS011;5707;49.588;12.148;2024-02-26T05:50:45;8.93;;;8.23;;
11303;SDS011;5707;49.588;12.148;2024-02-26T05:53:10;8.68;;;8.02;;
11303;SDS011;5707;49.588;12.148;2024-02-26T05:55:36;7.32;;;6.75;;
11303;SDS011;5707;49.588;12.148;2024-02-26T05:58:02;9.05;;;8.25;;
11303;SDS011;5707;49.588;12.148;2024-02-26T06:00:28;8.60;;;7.90;;
11303;SDS011;5707;49.588;12.148;2024-02-26T06:02:53;8.13;;;7.28;;
11303;SDS011;5707;49.588;12.148;2024-02-26T06:05:19;7.70;;;7.10;;
11303;SDS011;5707;49.588;12.148;2024-02-26T06:07:44;7.70;;;7.15;;
11303;SDS011;5707;49.588;12.148;2024-02-26T06:10:10;7.80;;;7.10;;
11303;SDS011;5707;49.588;12.148;2024-02-26T06:12:35;7.32;;;6.72;;
11303;SDS011;5707;49.588;12.148;2024-02-26T06:15:01;7.45;;;6.85;;
11303;SDS011;5707;49.588;12.148;2024-02-26T06:17:27;7.00;;;6.50;;
11303;SDS011;5707;49.588;12.148;2024-02-26T06:19:53;6.97;;;6.47;;
11303;SDS011;5707;49.588;12.148;2024-02-26T06:22:19;7.60;;;7.00;;
11303;SDS011;5707;49.588;12.148;2024-02-26T06:24:44;7.07;;;6.57;;
11303;SDS011;5707;49.588;12.148;2024-02-26T06:27:10;7.47;;;6.88;;
11303;SDS011;5707;49.588;12.148;2024-02-26T06:29:35;6.05;;;5.53;;
11303;SDS011;5707;49.588;12.148;2024-02-26T06:32:01;6.45;;;5.90;;
11303;SDS011;5707;49.588;12.148;2024-02-26T06:34:26;7.20;;;6.53;;
11303;SDS011;5707;49.588;12.148;2024-02-26T06:36:52;6.55;;;6.05;;
11303;SDS011;5707;49.588;12.148;2024-02-26T06:39:17;6.65;;;6.13;;
11303;SDS011;5707;49.588;12.148;2024-02-26T06:41:43;6.38;;;5.88;;
11303;SDS011;5707;49.588;12.148;2024-02-26T06:44:11;6.68;;;6.18;;
11303;SDS011;5707;49.588;12.148;2024-02-26T06:46:38;6.68;;;6.18;;
11303;SDS011;5707;49.588;12.148;2024-02-26T06:49:03;7.35;;;6.75;;
11303;SDS011;5707;49.588;12.148;2024-02-26T06:51:29;7.40;;;6.80;;
11303;SDS011;5707;49.588;12.148;2024-02-26T06:53:54;6.72;;;6.13;;
11303;SDS011;5707;49.588;12.148;2024-02-26T06:56:20;7.72;;;7.07;;
11303;SDS011;5707;49.588;12.148;2024-02-26T06:58:45;7.28;;;6.68;;
11303;SDS011;5707;49.588;12.148;2024-02-26T07:01:12;7.82;;;7.22;;
11303;SDS011;5707;49.588;12.148;2024-02-26T07:03:37;7.63;;;7.03;;
11303;SDS011;5707;49.588;12.148;2024-02-26T07:06:05;7.28;;;6.57;;
11303;SDS011;5707;49.588;12.148;2024-02-26T07:08:31;7.07;;;6.50;;
11303;SDS011;5707;49.588;12.148;2024-02-26T07:10:57;7.10;;;6.50;;
11303;SDS011;5707;49.588;12.148;2024-02-26T07:13:23;6.60;;;6.10;;
11303;SDS011;5707;49.588;12.148;2024-02-26T07:15:48;6.45;;;5.90;;
11303;SDS011;5707;49.588;12.148;2024-02-26T07:18:14;7.07;;;6.50;;
11303;SDS011;5707;49.588;12.148;2024-02-26T07:20:39;6.80;;;6.20;;
11303;SDS011;5707;49.588;12.148;2024-02-26T07:23:05;7.05;;;6.55;;
11303;SDS011;5707;49.588;12.148;2024-02-26T07:25:32;7.50;;;6.90;;
11303;SDS011;5707;49.588;12.148;2024-02-26T07:27:58;8.10;;;7.40;;
11303;SDS011;5707;49.588;12.148;2024-02-26T07:30:23;6.35;;;5.80;;
11303;SDS011;5707;49.588;12.148;2024-02-26T07:32:49;6.93;;;6.32;;
11303;SDS011;5707;49.588;12.148;2024-02-26T07:35:15;7.93;;;7.28;;
11303;SDS011;5707;49.588;12.148;2024-02-26T07:37:42;7.63;;;7.03;;
11303;SDS011;5707;49.588;12.148;2024-02-26T07:40:08;7.43;;;6.82;;
11303;SDS011;5707;49.588;12.148;2024-02-26T07:42:34;7.53;;;6.93;;
11303;SDS011;5707;49.588;12.148;2024-02-26T07:45:00;7.90;;;7.20;;
11303;SDS011;5707;49.588;12.148;2024-02-26T07:47:25;7.65;;;6.93;;
11303;SDS011;5707;49.588;12.148;2024-02-26T07:49:51;8.02;;;7.20;;
11303;SDS011;5707;49.588;12.148;2024-02-26T07:52:16;7.03;;;6.53;;
11303;SDS011;5707;49.588;12.148;2024-02-26T07:54:42;7.28;;;6.57;;
11303;SDS011;5707;49.588;12.148;2024-02-26T07:57:08;8.05;;;7.25;;
11303;SDS011;5707;49.588;12.148;2024-02-26T07:59:33;7.32;;;6.72;;
11303;SDS011;5707;49.588;12.148;2024-02-26T08:01:59;7.32;;;6.72;;
11303;SDS011;5707;49.588;12.148;2024-02-26T08:04:25;7.22;;;6.63;;
11303;SDS011;5707;49.588;12.148;2024-02-26T08:06:51;6.97;;;6.40;;
11303;SDS011;5707;49.588;12.148;2024-02-26T08:09:17;6.53;;;5.85;;
11303;SDS011;5707;49.588;12.148;2024-02-26T08:11:42;7.00;;;6.38;;
11303;SDS011;5707;49.588;12.148;2024-02-26T08:14:08;6.65;;;6.15;;
11303;SDS011;5707;49.588;12.148;2024-02-26T08:16:33;7.80;;;7.28;;
11303;SDS011;5707;49.588;12.148;2024-02-26T08:18:59;6.78;;;6.18;;
11303;SDS011;5707;49.588;12.148;2024-02-26T08:21:25;7.07;;;6.45;;
11303;SDS011;5707;49.588;12.148;2024-02-26T08:23:50;6.80;;;6.30;;
11303;SDS011;5707;49.588;12.148;2024-02-26T08:26:16;6.57;;;6.07;;
11303;SDS011;5707;49.588;12.148;2024-02-26T08:28:41;6.53;;;6.03;;
11303;SDS011;5707;49.588;12.148;2024-02-26T08:31:07;6.85;;;6.25;;
11303;SDS011;5707;49.588;12.148;2024-02-26T08:33:33;6.80;;;6.20;;
11303;SDS011;5707;49.588;12.148;2024-02-26T08:36:03;7.00;;;6.45;;
11303;SDS011;5707;49.588;12.148;2024-02-26T08:38:30;6.90;;;6.30;;
11303;SDS011;5707;49.588;12.148;2024-02-26T08:40:55;6.53;;;6.03;;
11303;SDS011;5707;49.588;12.148;2024-02-26T08:43:21;6.70;;;6.18;;
11303;SDS011;5707;49.588;12.148;2024-02-26T08:45:46;6.80;;;6.30;;
11303;SDS011;5707;49.588;12.148;2024-02-26T08:48:12;7.07;;;6.47;;
11303;SDS011;5707;49.588;12.148;2024-02-26T08:50:37;7.30;;;6.68;;
11303;SDS011;5707;49.588;12.148;2024-02-26T08:53:03;7.00;;;6.40;;
11303;SDS011;5707;49.588;12.148;2024-02-26T08:55:29;7.07;;;6.47;;
11303;SDS011;5707;49.588;12.148;2024-02-26T08:57:54;6.57;;;5.97;;
11303;SDS011;5707;49.588;12.148;2024-02-26T09:00:20;6.45;;;5.95;;
11303;SDS011;5707;49.588;12.148;2024-02-26T09:02:47;6.55;;;5.95;;
11303;SDS011;5707;49.588;12.148;2024-02-26T09:05:12;7.88;;;6.82;;
11303;SDS011;5707;49.588;12.148;2024-02-26T09:07:38;6.32;;;5.68;;
11303;SDS011;5707;49.588;12.148;2024-02-26T09:10:04;5.97;;;5.47;;
11303;SDS011;5707;49.588;12.148;2024-02-26T09:12:31;7.13;;;6.53;;
11303;SDS011;5707;49.588;12.148;2024-02-26T09:14:56;6.45;;;5.93;;
11303;SDS011;5707;49.588;12.148;2024-02-26T09:17:22;6.80;;;6.20;;
11303;SDS011;5707;49.588;12.148;2024-02-26T09:19:48;6.97;;;6.25;;
11303;SDS011;5707;49.588;12.148;2024-02-26T09:22:13;6.47;;;5.97;;
11303;SDS011;5707;49.588;12.148;2024-02-26T09:24:39;7.05;;;6.45;;
11303;SDS011;5707;49.588;12.148;2024-02-26T09:27:05;7.00;;;6.40;;
11303;SDS011;5707;49.588;12.148;2024-02-26T09:29:30;5.63;;;5.20;;
11303;SDS011;5707;49.588;12.148;2024-02-26T09:31:56;6.43;;;5.93;;
11303;SDS011;5707;49.588;12.148;2024-02-26T09:34:21;6.00;;;5.50;;
11303;SDS011;5707;49.588;12.148;2024-02-26T09:36:47;7.00;;;6.32;;
11303;SDS011;5707;49.588;12.148;2024-02-26T09:39:12;6.55;;;6.00;;
11303;SDS011;5707;49.588;12.148;2024-02-26T09:41:39;6.57;;;5.95;;
11303;SDS011;5707;49.588;12.148;2024-02-26T09:44:05;6.28;;;5.78;;
11303;SDS011;5707;49.588;12.148;2024-02-26T09:46:31;6.07;;;5.57;;
11303;SDS011;5707;49.588;12.148;2024-02-26T09:48:57;7.22;;;6.63;;
11303;SDS011;5707;49.588;12.148;2024-02-26T09:51:23;6.90;;;6.30;;
11303;SDS011;5707;49.588;12.148;2024-02-26T09:53:51;6.50;;;5.90;;
11303;SDS011;5707;49.588;12.148;2024-02-26T09:56:17;5.30;;;4.90;;
11303;SDS011;5707;49.588;12.148;2024-02-26T09:58:43;5.90;;;5.45;;
11303;SDS011;5707;49.588;12.148;2024-02-26T10:01:17;6.05;;;5.55;;
11303;SDS011;5707;49.588;12.148;2024-02-26T10:03:44;5.55;;;5.10;;
11303;SDS011;5707;49.588;12.148;2024-02-26T10:06:22;6.13;;;5.63;;
11303;SDS011;5707;49.588;12.148;2024-02-26T10:08:51;6.70;;;6.20;;
11303;SDS011;5707;49.588;12.148;2024-02-26T10:11:17;6.05;;;5.55;;
11303;SDS011;5707;49.588;12.148;2024-02-26T10:13:43;6.82;;;6.28;;
11303;SDS011;5707;49.588;12.148;2024-02-26T10:16:08;6.72;;;6.05;;
11303;SDS011;5707;49.588;12.148;2024-02-26T10:18:51;6.28;;;5.78;;
11303;SDS011;5707;49.588;12.148;2024-02-26T10:21:19;6.53;;;6.03;;
11303;SDS011;5707;49.588;12.148;2024-02-26T10:23:45;6.15;;;5.65;;
11303;SDS011;5707;49.588;12.148;2024-02-26T10:26:12;6.28;;;5.63;;
11303;SDS011;5707;49.588;12.148;2024-02-26T10:28:39;6.32;;;5.82;;
11303;SDS011;5707;49.588;12.148;2024-02-26T10:31:05;6.10;;;5.50;;
11303;SDS011;5707;49.588;12.148;2024-02-26T10:33:35;5.57;;;5.18;;
11303;SDS011;5707;49.588;12.148;2024-02-26T10:36:05;6.22;;;5.68;;
11303;SDS011;5707;49.588;12.148;2024-02-26T10:38:33;5.68;;;5.18;;
11303;SDS011;5707;49.588;12.148;2024-02-26T10:40:59;5.38;;;4.97;;
11303;SDS011;5707;49.588;12.148;2024-02-26T10:43:26;4.78;;;4.32;;
11303;SDS011;5707;49.588;12.148;2024-02-26T10:45:51;6.30;;;5.03;;
11303;SDS011;5707;49.588;12.148;2024-02-26T10:48:18;5.07;;;4.68;;
11303;SDS011;5707;49.588;12.148;2024-02-26T10:50:43;5.28;;;4.88;;
11303;SDS011;5707;49.588;12.148;2024-02-26T10:53:13;4.93;;;4.53;;
11303;SDS011;5707;49.588;12.148;2024-02-26T10:55:41;5.22;;;4.82;;
11303;SDS011;5707;49.588;12.148;2024-02-26T10:58:11;4.72;;;4.32;;
11303;SDS011;5707;49.588;12.148;2024-02-26T11:00:38;5.63;;;5.22;;
11303;SDS011;5707;49.588;12.148;2024-02-26T11:03:04;4.82;;;4.43;;
11303;SDS011;5707;49.588;12.148;2024-02-26T11:05:32;5.68;;;5.22;;
11303;SDS011;5707;49.588;12.148;2024-02-26T11:07:59;5.35;;;4.95;;
11303;SDS011;5707;49.588;12.148;2024-02-26T11:10:26;4.70;;;4.40;;
11303;SDS011;5707;49.588;12.148;2024-02-26T11:12:54;6.10;;;5.60;;
11303;SDS011;5707;49.588;12.148;2024-02-26T11:15:21;4.63;;;4.22;;
11303;SDS011;5707;49.588;12.148;2024-02-26T11:17:47;4.68;;;4.38;;
11303;SDS011;5707;49.588;12.148;2024-02-26T11:20:13;6.10;;;5.55;;
11303;SDS011;5707;49.588;12.148;2024-02-26T11:22:39;6.13;;;5.63;;
11303;SDS011;5707;49.588;12.148;2024-02-26T11:25:05;5.00;;;4.60;;
11303;SDS011;5707;49.588;12.148;2024-02-26T11:27:34;4.65;;;4.25;;
11303;SDS011;5707;49.588;12.148;2024-02-26T11:30:04;5.47;;;5.07;;
11303;SDS011;5707;49.588;12.148;2024-02-26T11:32:34;6.22;;;5.72;;
11303;SDS011;5707;49.588;12.148;2024-02-26T11:35:00;6.85;;;6.32;;
11303;SDS011;5707;49.588;12.148;2024-02-26T11:37:26;6.43;;;5.82;;
11303;SDS011;5707;49.588;12.148;2024-02-26T11:39:52;5.60;;;5.00;;
11303;SDS011;5707;49.588;12.148;2024-02-26T11:42:18;6.82;;;5.45;;
11303;SDS011;5707;49.588;12.148;2024-02-26T11:44:48;6.72;;;6.20;;
11303;SDS011;5707;49.588;12.148;2024-02-26T11:47:18;5.72;;;5.22;;
11303;SDS011;5707;49.588;12.148;2024-02-26T11:49:45;8.25;;;7.63;;
11303;SDS011;5707;49.588;12.148;2024-02-26T11:52:10;5.60;;;5.20;;
11303;SDS011;5707;49.588;12.148;2024-02-26T11:55:18;5.63;;;5.18;;
11303;SDS011;5707;49.588;12.148;2024-02-26T11:57:29;6.40;;;5.78;;
11303;SDS011;5707;49.588;12.148;2024-02-26T12:02:45;5.68;;;5.25;;
11303;SDS011;5707;49.588;12.148;2024-02-26T12:05:16;6.60;;;6.10;;
11303;SDS011;5707;49.588;12.148;2024-02-26T12:07:46;5.65;;;5.15;;
11303;SDS011;5707;49.588;12.148;2024-02-26T12:10:23;4.93;;;4.55;;
11303;SDS011;5707;49.588;12.148;2024-02-26T12:12:52;6.18;;;5.68;;
11303;SDS011;5707;49.588;12.148;2024-02-26T12:15:19;6.47;;;5.97;;
11303;SDS011;5707;49.588;12.148;2024-02-26T12:17:48;5.13;;;4.72;;
11303;SDS011;5707;49.588;12.148;2024-02-26T12:20:14;5.78;;;5.28;;
11303;SDS011;5707;49.588;12.148;2024-02-26T12:22:44;4.97;;;4.47;;
11303;SDS011;5707;49.588;12.148;2024-02-26T12:25:12;6.38;;;5.88;;
11303;SDS011;5707;49.588;12.148;2024-02-26T12:27:39;6.47;;;5.97;;
11303;SDS011;5707;49.588;12.148;2024-02-26T12:30:04;6.97;;;6.38;;
11303;SDS011;5707;49.588;12.148;2024-02-26T12:32:31;6.63;;;6.03;;
11303;SDS011;5707;49.588;12.148;2024-02-26T12:34:57;6.82;;;6.22;;
11303;SDS011;5707;49.588;12.148;2024-02-26T12:37:24;5.95;;;5.50;;
11303;SDS011;5707;49.588;12.148;2024-02-26T12:39:50;5.95;;;5.32;;
11303;SDS011;5707;49.588;12.148;2024-02-26T12:42:16;7.50;;;6.68;;
11303;SDS011;5707;49.588;12.148;2024-02-26T12:44:42;6.93;;;6.40;;
11303;SDS011;5707;49.588;12.148;2024-02-26T12:47:10;8.68;;;7.93;;
11303;SDS011;5707;49.588;12.148;2024-02-26T12:49:41;7.82;;;7.18;;
11303;SDS011;5707;49.588;12.148;2024-02-26T12:52:08;7.65;;;7.05;;
11303;SDS011;5707;49.588;12.148;2024-02-26T12:54:34;7.07;;;6.47;;
11303;SDS011;5707;49.588;12.148;2024-02-26T12:57:00;7.43;;;6.78;;
11303;SDS011;5707;49.588;12.148;2024-02-26T12:59:28;8.05;;;7.30;;
11303;SDS011;5707;49.588;12.148;2024-02-26T13:01:54;8.18;;;7.40;;
11303;SDS011;5707;49.588;12.148;2024-02-26T13:04:20;8.38;;;7.60;;
11303;SDS011;5707;49.588;12.148;2024-02-26T13:06:46;8.05;;;7.35;;
11303;SDS011;5707;49.588;12.148;2024-02-26T13:09:15;8.43;;;7.72;;
11303;SDS011;5707;49.588;12.148;2024-02-26T13:11:43;11.55;;;10.48;;
11303;SDS011;5707;49.588;12.148;2024-02-26T13:14:18;7.85;;;7.25;;
11303;SDS011;5707;49.588;12.148;2024-02-26T13:16:45;8.25;;;7.55;;
11303;SDS011;5707;49.588;12.148;2024-02-26T13:19:19;8.13;;;7.30;;
11303;SDS011;5707;49.588;12.148;2024-02-26T13:21:44;8.77;;;8.07;;
11303;SDS011;5707;49.588;12.148;2024-02-26T13:24:12;7.90;;;7.20;;
11303;SDS011;5707;49.588;12.148;2024-02-26T13:26:38;8.30;;;7.57;;
11303;SDS011;5707;49.588;12.148;2024-02-26T13:29:04;7.63;;;6.93;;
11303;SDS011;5707;49.588;12.148;2024-02-26T13:31:30;7.72;;;7.05;;
11303;SDS011;5707;49.588;12.148;2024-02-26T13:33:56;7.65;;;6.97;;
11303;SDS011;5707;49.588;12.148;2024-02-26T13:36:22;7.60;;;6.90;;
11303;SDS011;5707;49.588;12.148;2024-02-26T13:38:52;8.13;;;7.43;;
11303;SDS011;5707;49.588;12.148;2024-02-26T13:41:18;7.88;;;7.18;;
11303;SDS011;5707;49.588;12.148;2024-02-26T13:43:44;8.10;;;7.03;;
11303;SDS011;5707;49.588;12.148;2024-02-26T13:46:09;7.35;;;6.68;;
11303;SDS011;5707;49.588;12.148;2024-02-26T13:48:37;8.63;;;7.93;;
11303;SDS011;5707;49.588;12.148;2024-02-26T13:51:03;8.65;;;7.82;;
11303;SDS011;5707;49.588;12.148;2024-02-26T13:53:29;9.00;;;8.30;;
11303;SDS011;5707;49.588;12.148;2024-02-26T13:55:55;8.38;;;7.57;;
11303;SDS011;5707;49.588;12.148;2024-02-26T13:58:20;9.02;;;8.32;;
11303;SDS011;5707;49.588;12.148;2024-02-26T14:00:48;9.50;;;8.70;;
11303;SDS011;5707;49.588;12.148;2024-02-26T14:03:14;9.07;;;8.38;;
11303;SDS011;5707;49.588;12.148;2024-02-26T14:05:41;9.40;;;8.60;;
11303;SDS011;5707;49.588;12.148;2024-02-26T14:08:07;9.23;;;8.52;;
11303;SDS011;5707;49.588;12.148;2024-02-26T14:10:32;10.40;;;9.50;;
11303;SDS011;5707;49.588;12.148;2024-02-26T14:12:58;9.77;;;8.88;;
11303;SDS011;5707;49.588;12.148;2024-02-26T14:15:25;10.85;;;9.85;;
11303;SDS011;5707;49.588;12.148;2024-02-26T14:17:51;10.57;;;9.57;;
11303;SDS011;5707;49.588;12.148;2024-02-26T14:20:24;10.07;;;8.80;;
11303;SDS011;5707;49.588;12.148;2024-02-26T14:22:50;11.27;;;10.23;;
11303;SDS011;5707;49.588;12.148;2024-02-26T14:25:19;9.75;;;8.93;;
11303;SDS011;5707;49.588;12.148;2024-02-26T14:27:46;8.30;;;7.57;;
11303;SDS011;5707;49.588;12.148;2024-02-26T14:30:14;9.90;;;9.10;;
11303;SDS011;5707;49.588;12.148;2024-02-26T14:32:40;9.85;;;8.95;;
11303;SDS011;5707;49.588;12.148;2024-02-26T14:35:09;9.07;;;8.27;;
11303;SDS011;5707;49.588;12.148;2024-02-26T14:37:36;9.77;;;8.88;;
11303;SDS011;5707;49.588;12.148;2024-02-26T14:40:02;9.38;;;8.43;;
11303;SDS011;5707;49.588;12.148;2024-02-26T14:42:28;10.90;;;8.90;;
11303;SDS011;5707;49.588;12.148;2024-02-26T14:44:54;9.70;;;7.88;;